Time;durP1;ratioP1;P1;durP2;ratioP2;P2;SDS_P1;SDS_P2;PMS_P1;PMS_P2;Temp;Humidity;BMP_temperature;BMP_pressure;BME280_temperature;BME280_humidity;BME280_pressure;Samples;Min_cycle;Max_cycle;Signal;HPM_P1;HPM_P2
2021/05/21 00:01:08;;;;;;;;;;;;;;;21.50;58.89;101406.00;5068661;28;1338;-67
2021/05/21 00:03:53;;;;;;;;;;;;;;;21.51;58.50;101396.25;5068351;28;640;-67
2021/05/21 00:06:38;;;;;;;;;;;;;;;21.49;58.38;101382.25;5052818;28;1276;-67
2021/05/21 00:09:24;;;;;;;;;;;;;;;21.47;58.78;101394.69;5068930;28;707;-67
2021/05/21 00:12:09;;;;;;;;;;;;;;;21.45;58.70;101392.16;5068785;28;1357;-66
2021/05/21 00:14:54;;;;;;;;;;;;;;;21.50;58.83;101389.22;5068669;28;975;-66
2021/05/21 00:17:40;;;;;;;;;;;;;;;21.47;58.84;101377.00;5068599;28;667;-66
2021/05/21 00:20:27;;;;;;;;;;;;;;;21.49;58.71;101380.41;5068394;28;1240;-66
2021/05/21 00:23:13;;;;;;;;;;;;;;;21.47;58.93;101378.81;5052909;28;636;-66
2021/05/21 00:25:58;;;;;;;;;;;;;;;21.47;58.71;101378.81;5068013;28;1350;-64
2021/05/21 00:28:43;;;;;;;;;;;;;;;21.46;58.83;101375.28;5068181;28;658;-67
2021/05/21 00:31:29;;;;;;;;;;;;;;;21.46;59.22;101367.34;5068494;28;1268;-66
2021/05/21 00:34:14;;;;;;;;;;;;;;;21.48;58.87;101367.25;5052983;28;1909;-67
2021/05/21 00:36:59;;;;;;;;;;;;;;;21.42;58.85;101357.03;5068285;28;1459;-65
2021/05/21 00:39:45;;;;;;;;;;;;;;;21.42;59.16;101357.88;5068011;28;971;-66
2021/05/21 00:42:30;;;;;;;;;;;;;;;21.46;58.89;101350.59;5068035;28;1286;-66
2021/05/21 00:45:16;;;;;;;;;;;;;;;21.44;59.33;101344.53;5068350;28;1311;-66
2021/05/21 00:48:01;;;;;;;;;;;;;;;21.44;59.09;101348.03;5068259;28;627;-67
2021/05/21 00:50:48;;;;;;;;;;;;;;;21.44;59.55;101342.72;5068420;28;1310;-66
2021/05/21 00:53:34;;;;;;;;;;;;;;;21.42;59.19;101335.81;5071056;28;1963;-67
2021/05/21 00:56:19;;;;;;;;;;;;;;;21.41;59.11;101336.75;5072187;28;1266;-66
2021/05/21 00:59:04;;;;;;;;;;;;;;;21.43;59.46;101332.25;5071048;28;711;-66
2021/05/21 01:01:50;;;;;;;;;;;;;;;21.42;59.64;101322.56;5071821;28;1314;-66
2021/05/21 01:04:36;;;;;;;;;;;;;;;21.43;59.36;101309.22;5071435;28;663;-65
2021/05/21 01:07:21;;;;;;;;;;;;;;;21.41;59.55;101313.75;5071372;28;1264;-65
2021/05/21 01:10:07;;;;;;;;;;;;;;;21.41;59.34;101308.47;5071515;28;1109;-66
2021/05/21 01:12:52;;;;;;;;;;;;;;;21.39;59.54;101307.72;5071140;28;1906;-65
2021/05/21 01:15:38;;;;;;;;;;;;;;;21.39;59.38;101302.41;5071396;28;1289;-66
2021/05/21 01:18:24;;;;;;;;;;;;;;;21.43;59.86;101303.09;5071044;28;706;-66
2021/05/21 01:21:10;;;;;;;;;;;;;;;21.41;59.79;101297.00;5071487;28;1310;-66
2021/05/21 01:23:55;;;;;;;;;;;;;;;21.41;59.69;101289.91;5071333;28;695;-66
2021/05/21 01:26:40;;;;;;;;;;;;;;;21.42;59.79;101293.41;5071272;28;1240;-66
2021/05/21 01:29:27;;;;;;;;;;;;;;;21.40;59.77;101287.38;5071275;28;620;-66
2021/05/21 01:32:12;;;;;;;;;;;;;;;21.38;59.65;101283.94;5055721;28;1311;-66
2021/05/21 01:34:58;;;;;;;;;;;;;;;21.41;59.82;101284.59;5070601;28;1911;-65
2021/05/21 01:37:44;;;;;;;;;;;;;;;21.40;59.70;101282.88;5055517;28;1129;-66
2021/05/21 01:40:31;;;;;;;;;;;;;;;21.38;59.61;101268.88;5070495;28;1244;-66
2021/05/21 01:43:17;;;;;;;;;;;;;;;21.38;59.79;101262.72;5070726;28;675;-66
2021/05/21 01:46:02;;;;;;;;;;;;;;;21.39;59.77;101262.66;5070916;28;1200;-65
2021/05/21 01:48:47;;;;;;;;;;;;;;;21.36;59.67;101264.63;5070480;28;667;-67
2021/05/21 01:51:34;;;;;;;;;;;;;;;21.38;59.61;101268.03;5070589;28;1224;-66
2021/05/21 01:54:19;;;;;;;;;;;;;;;21.35;59.50;101270.88;5055603;28;1902;-67
2021/05/21 01:57:04;;;;;;;;;;;;;;;21.34;59.70;101258.56;5055457;28;1226;-66
2021/05/21 01:59:49;;;;;;;;;;;;;;;21.36;59.60;101259.31;5055326;28;1127;-67
2021/05/21 02:02:36;;;;;;;;;;;;;;;21.36;59.77;101254.03;5055138;28;1364;-67
2021/05/21 02:05:21;;;;;;;;;;;;;;;21.33;60.09;101255.06;5069731;28;1372;-67
2021/05/21 02:08:07;;;;;;;;;;;;;;;21.33;59.59;101254.22;5055148;28;636;-67
2021/05/21 02:10:53;;;;;;;;;;;;;;;21.34;60.19;101261.22;5070139;28;1247;-66
2021/05/21 02:13:39;;;;;;;;;;;;;;;21.34;60.11;101247.97;5069836;28;1985;-67
2021/05/21 02:16:24;;;;;;;;;;;;;;;21.34;59.96;101234.72;5070107;28;1267;-67
2021/05/21 02:19:10;;;;;;;;;;;;;;;21.34;59.85;101229.44;5069930;28;624;-66
2021/05/21 02:21:56;;;;;;;;;;;;;;;21.33;59.90;101227.72;5054956;28;1203;-68
2021/05/21 02:24:41;;;;;;;;;;;;;;;21.30;59.78;101225.25;5069720;28;695;-67
2021/05/21 02:27:27;;;;;;;;;;;;;;;21.31;59.97;101219.84;5069629;28;1294;-67
2021/05/21 02:30:13;;;;;;;;;;;;;;;21.31;60.06;101221.66;5069850;28;938;-67
2021/05/21 02:32:58;;;;;;;;;;;;;;;21.30;60.04;101220.81;5070081;28;698;-67
2021/05/21 02:35:43;;;;;;;;;;;;;;;21.31;60.10;101203.94;5069912;28;1276;-67
2021/05/21 02:38:28;;;;;;;;;;;;;;;21.32;60.09;101204.81;5049833;28;667;-67
2021/05/21 02:41:14;;;;;;;;;;;;;;;21.32;60.26;101204.81;5048781;28;1342;-67
2021/05/21 02:43:59;;;;;;;;;;;;;;;21.30;60.32;101196.09;5049814;28;715;-66
2021/05/21 02:46:44;;;;;;;;;;;;;;;21.30;60.31;101194.31;5050122;28;1260;-66
2021/05/21 02:49:31;;;;;;;;;;;;;;;21.29;60.15;101189.09;5049721;28;688;-67
2021/05/21 02:52:17;;;;;;;;;;;;;;;21.29;60.32;101192.59;5049567;28;1357;-67
2021/05/21 02:55:05;;;;;;;;;;;;;;;21.30;60.35;101185.50;5034762;28;1902;-67
2021/05/21 02:57:50;;;;;;;;;;;;;;;21.30;60.21;101180.19;5049881;28;800;-65
2021/05/21 03:00:36;;;;;;;;;;;;;;;21.28;60.32;101176.81;5049461;28;1236;-66
2021/05/21 03:03:21;;;;;;;;;;;;;;;21.30;60.72;101177.56;5049315;28;703;-65
2021/05/21 03:06:07;;;;;;;;;;;;;;;21.27;60.39;101175.94;5034135;28;1268;-65
2021/05/21 03:08:52;;;;;;;;;;;;;;;21.28;60.73;101161.72;5049567;28;620;-66
2021/05/21 03:11:38;;;;;;;;;;;;;;;21.29;60.48;101163.44;5049445;28;1341;-66
2021/05/21 03:14:23;;;;;;;;;;;;;;;21.29;60.55;101162.59;5049910;28;1906;-67
2021/05/21 03:17:08;;;;;;;;;;;;;;;21.29;60.56;101162.59;5048697;28;1260;-66
2021/05/21 03:19:54;;;;;;;;;;;;;;;21.29;60.48;101154.66;5034482;28;1117;-66
2021/05/21 03:22:39;;;;;;;;;;;;;;;21.27;60.40;101148.59;5047963;28;652;-65
2021/05/21 03:25:25;;;;;;;;;;;;;;;21.29;60.31;101141.41;5049164;28;1238;-65
2021/05/21 03:28:10;;;;;;;;;;;;;;;21.27;60.27;101145.94;5049378;28;687;-65
2021/05/21 03:30:56;;;;;;;;;;;;;;;21.24;60.15;101147.84;5034360;28;1255;-66
2021/05/21 03:33:41;;;;;;;;;;;;;;;21.25;60.15;101146.03;5049242;28;1965;-66
2021/05/21 03:36:26;;;;;;;;;;;;;;;21.27;60.26;101144.16;5052719;28;1375;-67
2021/05/21 03:39:12;;;;;;;;;;;;;;;21.27;60.64;101144.16;5068895;28;679;-66
2021/05/21 03:41:57;;;;;;;;;;;;;;;21.26;60.37;101145.09;5069130;28;1330;-66
2021/05/21 03:44:42;;;;;;;;;;;;;;;21.24;59.80;101134.59;5068676;28;655;-66
2021/05/21 03:47:27;;;;;;;;;;;;;;;21.23;59.77;101132.03;5068625;28;1300;-66
2021/05/21 03:50:13;;;;;;;;;;;;;;;21.22;59.69;101136.47;5068338;28;1082;-66
2021/05/21 03:52:59;;;;;;;;;;;;;;;21.21;59.73;101140.09;5068837;28;674;-66
2021/05/21 03:55:44;;;;;;;;;;;;;;;21.22;59.44;101136.47;5068828;28;1992;-66
2021/05/21 03:58:30;;;;;;;;;;;;;;;21.23;59.80;101127.59;5068016;28;703;-66
2021/05/21 04:01:15;;;;;;;;;;;;;;;21.21;59.34;101129.50;5068275;28;1212;-66
2021/05/21 04:04:01;;;;;;;;;;;;;;;21.23;59.36;101124.94;5068462;28;694;-68
2021/05/21 04:06:47;;;;;;;;;;;;;;;21.21;59.36;101118.03;5053374;28;1257;-67
2021/05/21 04:09:32;;;;;;;;;;;;;;;21.21;59.89;101110.94;5053512;28;609;-67
2021/05/21 04:12:18;;;;;;;;;;;;;;;21.21;59.86;101112.72;5068503;28;1382;-67
2021/05/21 04:15:04;;;;;;;;;;;;;;;21.20;59.81;101117.19;5068514;28;1967;-66
2021/05/21 04:17:49;;;;;;;;;;;;;;;21.20;59.87;101125.13;5068879;28;671;-67
2021/05/21 04:20:34;;;;;;;;;;;;;;;21.21;59.80;101118.88;5068131;28;1270;-66
2021/05/21 04:23:20;;;;;;;;;;;;;;;21.23;59.90;101121.44;5069033;28;722;-67
2021/05/21 04:26:05;;;;;;;;;;;;;;;21.21;59.61;101118.88;5069131;28;1283;-67
2021/05/21 04:28:50;;;;;;;;;;;;;;;21.19;59.87;101115.47;5071712;28;698;-67
2021/05/21 04:31:36;;;;;;;;;;;;;;;21.19;60.01;101120.75;5072015;28;1334;-66
2021/05/21 04:34:21;;;;;;;;;;;;;;;21.18;60.21;101119.09;5072245;28;1906;-66
2021/05/21 04:37:06;;;;;;;;;;;;;;;21.19;60.17;101126.06;5072188;28;1393;-67
2021/05/21 04:39:51;;;;;;;;;;;;;;;21.22;60.50;101117.06;5072046;28;1066;-65
2021/05/21 04:42:57;;;;;;;;;;;;;;;21.20;60.03;101122.47;5072143;28;645;-66
2021/05/21 04:45:42;;;;;;;;;;;;;;;21.23;60.37;101121.44;5072381;28;1248;-67
2021/05/21 04:48:27;;;;;;;;;;;;;;;21.21;60.49;101118.03;5056787;28;675;-67
2021/05/21 04:51:13;;;;;;;;;;;;;;;21.18;60.10;101113.78;5071736;28;1282;-66
2021/05/21 04:53:59;;;;;;;;;;;;;;;21.20;60.28;101121.63;5071820;28;1954;-66
2021/05/21 04:56:44;;;;;;;;;;;;;;;21.18;60.16;101113.78;5072122;28;1248;-68
2021/05/21 04:59:29;;;;;;;;;;;;;;;21.17;60.15;101114.72;5056398;28;640;-67
2021/05/21 05:02:15;;;;;;;;;;;;;;;21.18;60.10;101127.03;5071202;28;1341;-67
2021/05/21 05:05:00;;;;;;;;;;;;;;;21.15;60.24;101121.91;5056504;28;1146;-67
2021/05/21 05:07:46;;;;;;;;;;;;;;;21.16;60.42;101126.25;5071372;28;670;-67
2021/05/21 05:10:31;;;;;;;;;;;;;;;21.28;60.23;101121.16;5069702;28;1405;-67
2021/05/21 05:13:17;;;;;;;;;;;;;;;21.23;60.64;101117.00;5070219;28;679;-69
2021/05/21 05:16:02;;;;;;;;;;;;;;;21.20;60.64;101114.53;5070479;28;1898;-69
2021/05/21 05:18:48;;;;;;;;;;;;;;;21.17;60.79;101112.06;5053003;28;1528;-68
2021/05/21 05:21:37;;;;;;;;;;;;;;;21.20;61.05;101116.31;5068742;28;1244;-69
2021/05/21 05:24:23;;;;;;;;;;;;;;;21.21;60.70;101113.59;5071524;28;646;-67
2021/05/21 05:27:08;;;;;;;;;;;;;;;21.21;60.81;101102.13;5070404;28;1272;-70
2021/05/21 05:29:54;;;;;;;;;;;;;;;21.24;60.77;101107.25;5066550;28;1166;-67
2021/05/21 05:32:39;;;;;;;;;;;;;;;21.31;61.45;101102.44;5070014;28;877;-66
2021/05/21 05:35:24;;;;;;;;;;;;;;;21.30;61.31;101098.06;5069631;28;1965;-66
2021/05/21 05:38:11;;;;;;;;;;;;;;;21.33;60.63;101101.38;5069249;28;1484;-68
2021/05/21 05:40:57;;;;;;;;;;;;;;;21.31;60.48;101105.06;5069312;28;1311;-68
2021/05/21 05:43:42;;;;;;;;;;;;;;;21.24;60.61;101112.56;5069742;28;641;-68
2021/05/21 05:46:27;;;;;;;;;;;;;;;21.24;60.96;101109.91;5069811;28;1192;-67
2021/05/21 05:49:13;;;;;;;;;;;;;;;21.23;60.73;101100.25;5061597;28;1005;-68
2021/05/21 05:51:58;;;;;;;;;;;;;;;21.25;60.94;101109.78;5058841;28;1254;-68
2021/05/21 05:54:43;;;;;;;;;;;;;;;21.23;60.79;101106.41;5064606;28;1971;-67
2021/05/21 05:57:29;;;;;;;;;;;;;;;21.24;61.02;101099.31;5069296;28;1366;-68
2021/05/21 06:00:14;;;;;;;;;;;;;;;21.24;60.95;101109.91;5066711;28;1382;-68
2021/05/21 06:03:06;;;;;;;;;;;;;;;21.28;60.55;101105.28;5068462;28;1087;-66
2021/05/21 06:05:52;;;;;;;;;;;;;;;21.27;60.84;101107.06;5069452;28;1248;-66
2021/05/21 06:08:37;;;;;;;;;;;;;;;21.31;61.30;101120.97;5054148;28;652;-64
2021/05/21 06:11:23;;;;;;;;;;;;;;;21.29;60.84;101112.25;5068607;28;1590;-67
2021/05/21 06:14:09;;;;;;;;;;;;;;;21.29;61.03;101110.47;5068819;28;1959;-67
2021/05/21 06:16:54;;;;;;;;;;;;;;;21.33;61.37;101116.41;5069195;28;1267;-70
2021/05/21 06:19:39;;;;;;;;;;;;;;;21.31;60.77;101135.06;5054103;28;981;-68
2021/05/21 06:22:25;;;;;;;;;;;;;;;21.30;61.36;101141.31;5068829;28;1271;-70
2021/05/21 06:25:11;;;;;;;;;;;;;;;21.31;61.49;101145.66;5068677;28;1056;-69
2021/05/21 06:27:56;;;;;;;;;;;;;;;21.30;61.16;101143.09;5068659;28;742;-68
2021/05/21 06:30:42;;;;;;;;;;;;;;;21.32;61.00;101139.41;5068348;28;1264;-67
2021/05/21 06:33:27;;;;;;;;;;;;;;;21.32;61.37;101143.84;5068563;28;686;-66
2021/05/21 06:36:12;;;;;;;;;;;;;;;21.30;61.14;101132.50;5068459;28;1969;-67
2021/05/21 06:38:58;;;;;;;;;;;;;;;21.37;61.16;101133.84;5070027;28;624;-67
2021/05/21 06:41:44;;;;;;;;;;;;;;;21.34;61.28;101136.69;5054071;28;1342;-69
2021/05/21 06:44:29;;;;;;;;;;;;;;;21.34;61.34;101129.56;5069580;28;639;-67
2021/05/21 06:47:15;;;;;;;;;;;;;;;21.34;61.52;101137.50;5069604;28;1428;-69
2021/05/21 06:50:01;;;;;;;;;;;;;;;21.34;61.69;101123.44;5054095;28;1048;-69
2021/05/21 06:52:46;;;;;;;;;;;;;;;21.33;61.40;101119.06;5054301;28;812;-68
2021/05/21 06:55:31;;;;;;;;;;;;;;;21.33;61.99;101119.94;5053268;28;1910;-69
2021/05/21 06:58:19;;;;;;;;;;;;;;;21.16;60.91;101120.94;5068943;28;683;-68
2021/05/21 07:01:04;;;;;;;;;;;;;;;21.06;60.77;101125.09;5049735;28;1832;-69
2021/05/21 07:03:49;;;;;;;;;;;;;;;20.90;61.41;101126.09;5068528;28;636;-67
2021/05/21 07:06:34;;;;;;;;;;;;;;;20.82;61.09;101131.88;5067421;28;1551;-68
2021/05/21 07:09:20;;;;;;;;;;;;;;;20.81;60.88;101134.59;5068701;28;660;-65
2021/05/21 07:12:05;;;;;;;;;;;;;;;20.89;60.64;101141.13;5068816;28;1204;-69
2021/05/21 07:14:50;;;;;;;;;;;;;;;20.67;61.26;101148.66;5067130;28;1902;-69
2021/05/21 07:17:36;;;;;;;;;;;;;;;20.83;60.97;101154.72;5068123;28;1365;-67
2021/05/21 07:20:21;;;;;;;;;;;;;;;20.84;61.02;101145.00;5068350;28;1354;-66
2021/05/21 07:23:07;;;;;;;;;;;;;;;20.83;60.46;101138.84;5049082;28;1631;-66
2021/05/21 07:25:52;;;;;;;;;;;;;;;20.80;61.01;101148.75;5066559;28;1307;-66
2021/05/21 07:28:37;;;;;;;;;;;;;;;20.76;60.93;101142.81;5066946;28;1043;-67
2021/05/21 07:31:26;;;;;;;;;;;;;;;20.85;60.48;101141.41;5066999;28;1720;-68
2021/05/21 07:34:12;;;;;;;;;;;;;;;20.81;60.47;101139.88;5067753;28;619;-65
2021/05/21 07:36:57;;;;;;;;;;;;;;;20.89;60.31;101143.78;5067245;28;1431;-66
2021/05/21 07:39:43;;;;;;;;;;;;;;;20.90;60.39;101136.69;5066766;28;652;-64
2021/05/21 07:42:28;;;;;;;;;;;;;;;20.87;60.17;101137.72;5062761;28;1397;-64
2021/05/21 07:45:14;;;;;;;;;;;;;;;20.89;60.31;101133.19;5069178;28;1640;-62
2021/05/21 07:47:59;;;;;;;;;;;;;;;20.87;60.17;101126.28;5066971;28;640;-62
2021/05/21 07:50:44;;;;;;;;;;;;;;;20.84;59.78;101123.81;5066953;28;1291;-63
2021/05/21 07:53:32;;;;;;;;;;;;;;;20.96;59.52;101118.63;5066928;28;620;-64
2021/05/21 07:56:17;;;;;;;;;;;;;;;21.00;59.64;101111.38;5051608;28;1886;-63
2021/05/21 07:59:02;;;;;;;;;;;;;;;21.02;59.41;101101.53;5066758;28;1208;-66
2021/05/21 08:01:48;;;;;;;;;;;;;;;21.10;59.39;101102.78;5066611;28;1295;-65
2021/05/21 08:04:33;;;;;;;;;;;;;;;21.03;59.46;101096.16;5071088;28;608;-62
2021/05/21 08:07:18;;;;;;;;;;;;;;;21.05;59.22;101099.53;5070203;28;1292;-63
2021/05/21 08:10:06;;;;;;;;;;;;;;;21.06;58.82;101093.31;5070720;28;1138;-65
2021/05/21 08:12:52;;;;;;;;;;;;;;;20.99;58.81;101088.47;5070695;28;970;-65
2021/05/21 08:15:37;;;;;;;;;;;;;;;21.05;58.27;101086.28;5070653;28;1898;-65
2021/05/21 08:18:23;;;;;;;;;;;;;;;21.10;57.85;101071.00;5070242;28;675;-68
2021/05/21 08:21:08;;;;;;;;;;;;;;;21.09;57.19;101061.38;5068217;28;1283;-65
2021/05/21 08:23:54;;;;;;;;;;;;;;;21.04;57.14;101057.25;5070196;28;616;-66
2021/05/21 08:26:44;;;;;;;;;;;;;;;21.10;56.97;101052.47;5070121;28;1256;-67
2021/05/21 08:29:30;;;;;;;;;;;;;;;21.02;55.60;101044.09;5070007;28;644;-67
2021/05/21 08:32:18;;;;;;;;;;;;;;;21.07;55.73;101049.09;5070304;28;1275;-66
2021/05/21 08:35:05;;;;;;;;;;;;;;;21.09;55.39;101047.28;5071423;28;1894;-67
2021/05/21 08:37:51;;;;;;;;;;;;;;;21.06;55.24;101050.94;5056509;28;1650;-66
2021/05/21 08:40:40;;;;;;;;;;;;;;;21.12;54.15;101050.59;5048331;28;1247;-66
2021/05/21 08:43:25;;;;;;;;;;;;;;;21.20;54.54;101043.00;5051499;28;664;-65
2021/05/21 08:46:11;;;;;;;;;;;;;;;21.45;55.58;101052.06;5051888;28;1511;-66
2021/05/21 08:48:57;;;;;;;;;;;;;;;21.55;55.74;101054.00;5051829;28;640;-61
2021/05/21 08:51:42;;;;;;;;;;;;;;;21.49;56.07;101043.78;5068556;28;1334;-62
2021/05/21 08:54:45;;;;;;;;;;;;;;;21.47;56.09;101050.16;5071210;28;1902;-64
2021/05/21 08:57:32;;;;;;;;;;;;;;;21.52;54.95;101053.38;5056024;28;1256;-64
2021/05/21 09:00:18;;;;;;;;;;;;;;;21.57;54.60;101053.91;5070646;28;1362;-64
2021/05/21 09:03:20;;;;;;;;;;;;;;;21.60;55.55;101051.06;5070661;28;605;-63
2021/05/21 09:06:20;;;;;;;;;;;;;;;21.59;55.22;101054.66;5070702;28;1307;-63
2021/05/21 09:09:09;;;;;;;;;;;;;;;21.57;55.14;101054.78;5070765;28;676;-64
2021/05/21 09:11:54;;;;;;;;;;;;;;;21.62;54.81;101038.56;5071034;28;1310;-63
2021/05/21 09:14:39;;;;;;;;;;;;;;;21.60;54.40;101049.28;5070167;28;1955;-64
2021/05/21 09:17:25;;;;;;;;;;;;;;;21.59;55.53;101060.81;5055688;28;1296;-65
2021/05/21 09:20:20;;;;;;;;;;;;;;;21.60;53.83;101053.72;5070469;28;1127;-66
2021/05/21 09:23:10;;;;;;;;;;;;;;;21.59;53.65;101044.06;5071086;28;743;-66
2021/05/21 09:25:56;;;;;;;;;;;;;;;21.59;53.38;101049.38;5070388;28;1192;-64
2021/05/21 09:28:43;;;;;;;;;;;;;;;21.59;53.94;101052.88;5070580;28;655;-66
2021/05/21 09:31:29;;;;;;;;;;;;;;;21.59;54.73;101057.31;5070735;28;1308;-64
2021/05/21 09:34:23;;;;;;;;;;;;;;;21.62;54.70;101059.78;5070739;28;715;-68
2021/05/21 09:37:19;;;;;;;;;;;;;;;21.63;55.11;101059.69;5070287;28;1295;-65
2021/05/21 09:40:20;;;;;;;;;;;;;;;21.62;53.19;101052.69;5056786;28;1059;-64
2021/05/21 09:43:06;;;;;;;;;;;;;;;21.63;53.00;101066.78;5070553;28;632;-71
2021/05/21 09:45:52;;;;;;;;;;;;;;;21.66;53.36;101061.28;5055078;28;1243;-67
2021/05/21 09:48:43;;;;;;;;;;;;;;;21.72;54.42;101063.53;5070662;28;1041;-68
2021/05/21 09:51:49;;;;;;;;;;;;;;;21.72;54.75;101060.91;5070469;28;1308;-69
2021/05/21 09:54:50;;;;;;;;;;;;;;;21.65;55.28;101065.72;5035643;28;707;-70
2021/05/21 09:57:36;;;;;;;;;;;;;;;21.70;55.45;101066.28;5050030;28;1605;-70
2021/05/21 10:00:22;;;;;;;;;;;;;;;21.66;55.55;101059.50;5056089;28;1405;-71
2021/05/21 10:03:07;;;;;;;;;;;;;;;21.67;56.00;101042.63;5055015;28;1155;-71
2021/05/21 10:06:11;;;;;;;;;;;;;;;21.79;57.21;101031.22;5072177;28;1271;-71
2021/05/21 10:08:58;;;;;;;;;;;;;;;21.75;57.09;101029.72;5071692;28;982;-71
2021/05/21 10:11:45;;;;;;;;;;;;;;;21.74;57.41;101033.31;5056093;28;1304;-72
2021/05/21 10:14:32;;;;;;;;;;;;;;;21.75;57.48;101035.03;5071059;28;702;-71
2021/05/21 10:17:20;;;;;;;;;;;;;;;21.77;57.72;101027.81;5070216;28;1908;-70
2021/05/21 10:20:06;;;;;;;;;;;;;;;21.88;58.28;101016.56;5069721;28;1008;-70
2021/05/21 10:22:52;;;;;;;;;;;;;;;21.88;58.54;101008.59;5070487;28;1067;-70
2021/05/21 10:25:38;;;;;;;;;;;;;;;21.85;59.09;101000.81;5069387;28;1397;-70
2021/05/21 10:28:25;;;;;;;;;;;;;;;21.86;60.30;100994.53;5070413;28;1099;-69
2021/05/21 10:31:12;;;;;;;;;;;;;;;21.89;59.90;101004.97;5068876;28;1382;-73
2021/05/21 10:34:15;;;;;;;;;;;;;;;21.90;60.86;101001.38;5069882;28;1158;-71
2021/05/21 10:37:19;;;;;;;;;;;;;;;21.89;60.01;100983.75;5054042;28;1902;-73
2021/05/21 10:40:07;;;;;;;;;;;;;;;21.90;59.78;100990.78;5054553;28;1028;-69
2021/05/21 10:42:52;;;;;;;;;;;;;;;21.89;58.86;100974.94;5068576;28;1047;-69
2021/05/21 10:45:51;;;;;;;;;;;;;;;21.91;57.58;100973.91;5070908;28;1312;-75
2021/05/21 10:48:48;;;;;;;;;;;;;;;21.92;57.86;100988.88;5072316;28;1036;-71
2021/05/21 10:51:49;;;;;;;;;;;;;;;22.01;57.21;101006.81;5069258;28;1224;-70
2021/05/21 10:54:36;;;;;;;;;;;;;;;22.00;56.31;101002.47;5069907;28;1071;-67
2021/05/21 10:57:26;;;;;;;;;;;;;;;21.87;54.44;101001.56;5069797;28;1965;-64
2021/05/21 11:00:11;;;;;;;;;;;;;;;21.77;54.20;101000.44;5068470;28;620;-67
2021/05/21 11:02:57;;;;;;;;;;;;;;;21.67;53.13;100991.41;5068905;28;1149;-67
2021/05/21 11:05:42;;;;;;;;;;;;;;;21.65;53.55;100985.34;5054138;28;1303;-67
2021/05/21 11:08:28;;;;;;;;;;;;;;;21.66;53.10;100981.75;5068736;28;1520;-67
2021/05/21 11:11:14;;;;;;;;;;;;;;;21.67;53.85;100976.34;5047780;28;1315;-67
2021/05/21 11:14:04;;;;;;;;;;;;;;;21.72;53.60;100974.25;5049375;28;978;-66
2021/05/21 11:16:50;;;;;;;;;;;;;;;21.68;53.85;100963.94;5033284;28;1969;-66
2021/05/21 11:19:36;;;;;;;;;;;;;;;21.65;54.35;100958.84;5048957;28;1115;-67
2021/05/21 11:22:51;;;;;;;;;;;;;;;21.78;54.32;100951.78;5065191;28;1453;-64
2021/05/21 11:25:37;;;;;;;;;;;;;;;21.81;54.32;100938.31;5039674;28;1689;-65
2021/05/21 11:28:23;;;;;;;;;;;;;;;21.77;54.05;100918.25;5059518;28;1094;-64
2021/05/21 11:31:09;;;;;;;;;;;;;;;21.74;54.04;100913.16;5067145;28;1411;-63
2021/05/21 11:33:57;;;;;;;;;;;;;;;21.77;54.45;100911.16;5067850;28;1100;-62
2021/05/21 11:36:43;;;;;;;;;;;;;;;21.78;54.41;100914.66;5072448;28;1921;-64
2021/05/21 11:39:29;;;;;;;;;;;;;;;21.79;54.34;100908.41;5088825;28;707;-64
2021/05/21 11:42:14;;;;;;;;;;;;;;;21.76;54.51;100904.13;5068941;28;1362;-62
2021/05/21 11:45:00;;;;;;;;;;;;;;;21.75;55.14;100918.38;5067534;28;655;-62
2021/05/21 11:47:46;;;;;;;;;;;;;;;21.75;55.00;100912.22;5067869;28;1046;-64
2021/05/21 11:50:31;;;;;;;;;;;;;;;21.75;55.45;100901.59;5067614;28;1436;-65
2021/05/21 11:53:18;;;;;;;;;;;;;;;21.74;55.59;100900.75;5050808;28;1672;-64
2021/05/21 11:56:06;;;;;;;;;;;;;;;21.75;55.79;100891.00;5067551;28;1922;-63
2021/05/21 11:58:51;;;;;;;;;;;;;;;21.74;56.01;100886.63;5067911;28;1049;-64
2021/05/21 12:01:42;;;;;;;;;;;;;;;21.75;56.14;100885.69;5047363;28;1263;-64
2021/05/21 12:04:35;;;;;;;;;;;;;;;21.76;56.15;100871.50;5046972;28;699;-63
2021/05/21 12:07:25;;;;;;;;;;;;;;;21.76;56.40;100872.31;5047186;28;1242;-63
2021/05/21 12:10:11;;;;;;;;;;;;;;;21.77;56.81;100859.91;5047410;28;645;-63
2021/05/21 12:13:05;;;;;;;;;;;;;;;21.76;57.10;100856.41;5031943;28;1063;-63
2021/05/21 12:15:51;;;;;;;;;;;;;;;21.76;57.07;100856.41;5047386;28;1906;-64
2021/05/21 12:18:36;;;;;;;;;;;;;;;21.78;57.06;100853.69;5047639;28;1111;-63
2021/05/21 12:21:23;;;;;;;;;;;;;;;21.77;57.22;100863.44;5047226;28;1272;-63
2021/05/21 12:24:09;;;;;;;;;;;;;;;21.78;57.39;100861.63;5032308;28;1007;-62
2021/05/21 12:26:55;;;;;;;;;;;;;;;21.77;57.82;100858.13;5046811;28;1386;-63
2021/05/21 12:29:40;;;;;;;;;;;;;;;21.78;57.86;100869.59;5047144;28;703;-62
2021/05/21 12:32:28;;;;;;;;;;;;;;;21.79;57.94;100868.63;5047125;28;1273;-62
2021/05/21 12:35:15;;;;;;;;;;;;;;;21.79;58.28;100852.72;5082382;28;1127;-63
2021/05/21 12:38:04;;;;;;;;;;;;;;;21.79;58.08;100861.50;5086866;28;1449;-64
2021/05/21 12:40:53;;;;;;;;;;;;;;;21.82;58.21;100838.41;5071776;28;1334;-64
2021/05/21 12:43:38;;;;;;;;;;;;;;;22.00;57.93;100843.34;5076014;28;1502;-67
2021/05/21 12:46:23;;;;;;;;;;;;;;;21.96;58.15;100828.56;5065225;28;1398;-66
2021/05/21 12:49:09;;;;;;;;;;;;;;;21.91;58.25;100836.00;5053323;28;1007;-67
2021/05/21 12:51:56;;;;;;;;;;;;;;;21.90;58.39;100834.31;5054752;28;1295;-66
2021/05/21 12:54:43;;;;;;;;;;;;;;;21.94;58.39;100827.84;5069289;28;719;-66
2021/05/21 12:57:28;;;;;;;;;;;;;;;21.91;58.50;100820.09;5069293;28;1980;-66
2021/05/21 13:00:18;;;;;;;;;;;;;;;21.93;58.41;100820.84;5070361;28;636;-65
2021/05/21 13:03:03;;;;;;;;;;;;;;;21.94;58.65;100822.53;5070920;28;1424;-67
2021/05/21 13:05:54;;;;;;;;;;;;;;;21.97;58.41;100797.59;5055500;28;1412;-65
2021/05/21 13:08:47;;;;;;;;;;;;;;;22.00;58.43;100784.97;5070169;28;1553;-64
2021/05/21 13:11:51;;;;;;;;;;;;;;;22.03;58.51;100786.56;5070671;28;1346;-66
2021/05/21 13:14:43;;;;;;;;;;;;;;;22.04;58.13;100775.84;5069137;28;773;-69
2021/05/21 13:17:30;;;;;;;;;;;;;;;22.13;58.38;100775.19;5072071;28;1913;-62
2021/05/21 13:20:20;;;;;;;;;;;;;;;22.19;58.17;100779.25;5061340;28;1327;-63
2021/05/21 13:23:09;;;;;;;;;;;;;;;22.15;58.24;100775.94;5074774;28;1443;-67
2021/05/21 13:25:57;;;;;;;;;;;;;;;22.15;58.32;100770.66;5044673;28;1398;-67
2021/05/21 13:28:42;;;;;;;;;;;;;;;22.13;58.12;100775.19;5070178;28;930;-65
2021/05/21 13:31:27;;;;;;;;;;;;;;;22.20;58.40;100781.78;5055530;28;1411;-67
2021/05/21 13:34:14;;;;;;;;;;;;;;;22.36;58.65;100792.16;5055736;28;687;-65
2021/05/21 13:36:59;;;;;;;;;;;;;;;22.34;58.42;100784.28;5070834;28;1894;-68
2021/05/21 13:39:46;;;;;;;;;;;;;;;22.34;58.76;100780.81;5056839;28;648;-66
2021/05/21 13:42:35;;;;;;;;;;;;;;;22.37;58.82;100779.72;5055243;28;1284;-66
2021/05/21 13:45:20;;;;;;;;;;;;;;;22.37;59.37;100785.03;5069566;28;1523;-67
2021/05/21 13:48:05;;;;;;;;;;;;;;;22.36;58.93;100776.22;5055423;28;1056;-69
2021/05/21 13:50:51;;;;;;;;;;;;;;;22.46;59.72;100765.78;5070233;28;1275;-69
2021/05/21 13:53:36;;;;;;;;;;;;;;;22.51;59.22;100766.31;5051416;28;1751;-66
2021/05/21 13:56:22;;;;;;;;;;;;;;;22.45;59.87;100753.47;5050838;28;2070;-66
2021/05/21 13:59:08;;;;;;;;;;;;;;;22.38;59.82;100741.59;5067743;28;1082;-66
2021/05/21 14:01:54;;;;;;;;;;;;;;;22.29;59.83;100732.50;5055351;28;1414;-67
2021/05/21 14:04:39;;;;;;;;;;;;;;;22.24;60.26;100739.94;5050761;28;1206;-69
2021/05/21 14:07:25;;;;;;;;;;;;;;;22.21;60.30;100741.03;5066737;28;1339;-68
2021/05/21 14:10:11;;;;;;;;;;;;;;;22.23;60.24;100728.47;5066727;28;1218;-68
2021/05/21 14:12:57;;;;;;;;;;;;;;;22.20;60.12;100718.09;5065501;28;1179;-68
2021/05/21 14:15:42;;;;;;;;;;;;;;;22.17;60.28;100734.22;5066303;28;1335;-67
2021/05/21 14:18:27;;;;;;;;;;;;;;;22.17;60.16;100731.56;5067760;28;1147;-69
2021/05/21 14:21:13;;;;;;;;;;;;;;;22.18;60.32;100725.31;5064567;28;1300;-70
2021/05/21 14:24:01;;;;;;;;;;;;;;;22.24;59.96;100738.16;5063821;28;1157;-68
2021/05/21 14:26:50;;;;;;;;;;;;;;;22.27;59.66;100729.13;5065268;28;1388;-67
2021/05/21 14:29:36;;;;;;;;;;;;;;;22.24;59.88;100719.56;5067454;28;1222;-68
2021/05/21 14:32:21;;;;;;;;;;;;;;;22.24;59.92;100708.13;5049802;28;1434;-69